Time;durP1;ratioP1;P1;durP2;ratioP2;P2;SDS_P1;SDS_P2;PMS_P1;PMS_P2;Temp;Humidity;BMP_temperature;BMP_pressure;BME280_temperature;BME280_humidity;BME280_pressure;Samples;Min_cycle;Max_cycle;Signal;HPM_P1;HPM_P2
2023/05/02 00:01:50;;;;;;;19.47;17.10;;;13.10;99.90;;;;;;5068186;28;20988;-76
2023/05/02 00:04:17;;;;;;;20.53;17.33;;;13.10;99.90;;;;;;5073171;28;20269;-76
2023/05/02 00:06:45;;;;;;;20.53;18.40;;;13.10;99.90;;;;;;5074064;28;20180;-77
2023/05/02 00:09:11;;;;;;;22.03;18.13;;;13.10;99.90;;;;;;5079034;28;20503;-77
2023/05/02 00:11:37;;;;;;;20.33;17.77;;;13.00;99.90;;;;;;5074254;28;20441;-76
2023/05/02 00:14:02;;;;;;;22.13;19.17;;;13.00;99.90;;;;;;5072281;28;20755;-76
2023/05/02 00:16:28;;;;;;;23.27;18.33;;;13.00;99.90;;;;;;5072450;28;20541;-76
2023/05/02 00:18:54;;;;;;;23.27;19.17;;;12.90;99.90;;;;;;5076832;28;20177;-77
2023/05/02 00:21:19;;;;;;;22.50;19.93;;;12.90;99.90;;;;;;5058186;28;20197;-77
2023/05/02 00:23:45;;;;;;;22.40;19.80;;;12.90;99.90;;;;;;5072110;28;20193;-77
2023/05/02 00:26:11;;;;;;;26.90;20.40;;;12.80;99.90;;;;;;5054525;28;20172;-77
2023/05/02 00:28:36;;;;;;;22.60;19.67;;;12.80;99.90;;;;;;5071613;28;20251;-76
2023/05/02 00:31:03;;;;;;;26.87;22.30;;;12.80;99.90;;;;;;5071887;28;20193;-77
2023/05/02 00:33:29;;;;;;;23.50;20.50;;;12.80;99.90;;;;;;5078668;28;20214;-77
2023/05/02 00:35:55;;;;;;;23.30;20.30;;;12.80;99.90;;;;;;5052070;28;20408;-76
2023/05/02 00:38:20;;;;;;;22.50;19.80;;;12.80;99.90;;;;;;5051775;28;20202;-77
2023/05/02 00:40:49;;;;;;;28.43;23.07;;;12.80;99.90;;;;;;5051922;28;20292;-77
2023/05/02 00:43:16;;;;;;;29.57;23.10;;;12.70;99.90;;;;;;5033888;28;20223;-77
2023/05/02 00:45:43;;;;;;;29.27;22.23;;;12.70;99.90;;;;;;5051974;28;20416;-76
2023/05/02 00:48:09;;;;;;;26.23;22.87;;;12.70;99.90;;;;;;5033943;28;20448;-77
2023/05/02 00:50:39;;;;;;;30.23;24.77;;;12.70;99.90;;;;;;5051758;28;20419;-77
2023/05/02 00:53:06;;;;;;;28.20;23.60;;;12.60;99.90;;;;;;5051725;28;20921;-77
2023/05/02 00:55:34;;;;;;;28.17;23.60;;;12.60;99.90;;;;;;5051993;28;20416;-76
2023/05/02 00:58:05;;;;;;;30.23;24.47;;;12.70;99.90;;;;;;5051575;28;20511;-77
2023/05/02 01:00:45;;;;;;;34.43;23.40;;;12.70;99.90;;;;;;5051513;28;20498;-77
2023/05/02 01:03:28;;;;;;;31.03;25.87;;;12.70;99.90;;;;;;5051321;28;20419;-77
2023/05/02 01:06:15;;;;;;;28.70;22.30;;;12.60;99.90;;;;;;5033873;28;20447;-76
2023/05/02 01:08:54;;;;;;;28.17;23.87;;;12.70;99.90;;;;;;5033787;28;20456;-77
2023/05/02 01:11:43;;;;;;;30.70;23.63;;;12.70;99.90;;;;;;5071133;28;21155;-76
2023/05/02 01:14:10;;;;;;;30.47;25.13;;;12.70;99.90;;;;;;5071206;28;20951;-77
2023/05/02 01:16:40;;;;;;;31.83;24.97;;;12.70;99.90;;;;;;5053580;28;20940;-76
2023/05/02 01:19:12;;;;;;;31.80;25.73;;;12.70;99.90;;;;;;5071507;28;21091;-77
2023/05/02 01:21:39;;;;;;;34.53;26.60;;;12.70;99.90;;;;;;5071222;28;21099;-77
2023/05/02 01:24:23;;;;;;;35.40;27.17;;;12.70;99.90;;;;;;5067738;28;20431;-77
2023/05/02 01:27:13;;;;;;;36.90;26.87;;;12.70;99.90;;;;;;5071894;28;20510;-77
2023/05/02 01:29:40;;;;;;;34.70;26.43;;;12.70;99.90;;;;;;5076684;28;20830;-76
2023/05/02 01:32:07;;;;;;;34.60;27.63;;;12.70;99.90;;;;;;5055293;28;20443;-77
2023/05/02 01:34:37;;;;;;;36.23;27.30;;;12.70;99.90;;;;;;5070433;28;20820;-77
2023/05/02 01:37:05;;;;;;;34.10;27.13;;;12.70;99.90;;;;;;5073796;28;20438;-76
2023/05/02 01:39:32;;;;;;;37.50;26.90;;;12.70;99.90;;;;;;5072039;28;20411;-77
2023/05/02 01:42:01;;;;;;;36.13;28.30;;;12.70;99.90;;;;;;5074967;28;20443;-77
2023/05/02 01:44:28;;;;;;;31.70;25.67;;;12.70;99.90;;;;;;5070427;28;20473;-77
2023/05/02 01:46:55;;;;;;;35.97;27.20;;;12.70;99.90;;;;;;5070110;28;20434;-76
2023/05/02 01:49:22;;;;;;;39.93;28.67;;;12.70;99.90;;;;;;5073885;28;21047;-77
2023/05/02 01:51:50;;;;;;;37.57;29.40;;;12.60;99.90;;;;;;5061171;28;20423;-77
2023/05/02 01:54:19;;;;;;;38.20;27.97;;;12.70;99.90;;;;;;5070541;28;20418;-76
2023/05/02 01:56:46;;;;;;;39.57;28.77;;;12.60;99.90;;;;;;5052119;28;20415;-76
2023/05/02 01:59:16;;;;;;;39.00;29.20;;;12.60;99.90;;;;;;5076338;28;20411;-76
2023/05/02 02:01:43;;;;;;;37.00;28.30;;;12.60;99.90;;;;;;5069992;28;20538;-76
2023/05/02 02:04:12;;;;;;;37.07;27.90;;;12.60;99.90;;;;;;5052104;28;20927;-76
2023/05/02 02:06:39;;;;;;;37.63;27.17;;;12.50;99.90;;;;;;5060172;28;20419;-76
2023/05/02 02:09:05;;;;;;;37.37;25.63;;;12.60;99.90;;;;;;5069838;28;20574;-76
2023/05/02 02:11:58;;;;;;;35.00;25.83;;;12.50;99.90;;;;;;5069968;28;20564;-76
2023/05/02 02:14:26;;;;;;;37.27;26.80;;;12.50;99.90;;;;;;5074143;28;20806;-76
2023/05/02 02:17:00;;;;;;;33.90;25.83;;;12.40;99.90;;;;;;5061817;28;20416;-77
2023/05/02 02:19:29;;;;;;;37.13;26.07;;;12.40;99.90;;;;;;5069978;28;20415;-75
2023/05/02 02:21:57;;;;;;;34.00;26.40;;;12.40;99.90;;;;;;5052328;28;20795;-76
2023/05/02 02:24:24;;;;;;;36.20;25.80;;;12.40;99.90;;;;;;5070996;28;20426;-77
2023/05/02 02:26:50;;;;;;;34.47;25.50;;;12.30;99.90;;;;;;5070049;28;21256;-77
2023/05/02 02:29:16;;;;;;;33.13;23.70;;;12.30;99.90;;;;;;5070840;28;20459;-76
2023/05/02 02:31:42;;;;;;;36.60;26.50;;;12.40;99.90;;;;;;5070489;28;20530;-77
2023/05/02 02:34:08;;;;;;;36.10;23.73;;;12.40;99.90;;;;;;5069721;28;20544;-77
2023/05/02 02:36:45;;;;;;;33.00;23.93;;;12.30;99.90;;;;;;5069744;28;20590;-75
2023/05/02 02:39:38;;;;;;;32.40;22.03;;;12.40;99.90;;;;;;5070061;28;20187;-77
2023/05/02 02:42:10;;;;;;;31.03;22.13;;;12.40;99.90;;;;;;5069723;28;20526;-76
2023/05/02 02:44:54;;;;;;;32.73;23.57;;;12.40;99.90;;;;;;5051526;28;20418;-77
2023/05/02 02:47:35;;;;;;;26.40;21.10;;;12.40;99.90;;;;;;5069392;28;20943;-77
2023/05/02 02:50:26;;;;;;;30.47;22.13;;;12.40;99.90;;;;;;5069416;28;20512;-76
2023/05/02 02:53:03;;;;;;;28.13;20.17;;;12.40;99.90;;;;;;5069420;28;20423;-76
2023/05/02 02:55:35;;;;;;;27.40;19.67;;;12.40;99.90;;;;;;5051947;28;20411;-77
2023/05/02 02:58:11;;;;;;;29.77;21.00;;;12.40;99.90;;;;;;5069270;28;20502;-77
2023/05/02 03:00:38;;;;;;;26.27;20.13;;;12.40;99.90;;;;;;5069408;28;20415;-77
2023/05/02 03:03:05;;;;;;;28.63;20.23;;;12.40;99.90;;;;;;5050970;28;20488;-77
2023/05/02 03:05:32;;;;;;;27.90;19.70;;;12.30;99.90;;;;;;5069356;28;21052;-77
2023/05/02 03:07:59;;;;;;;28.30;19.27;;;12.30;99.90;;;;;;5068969;28;20415;-77
2023/05/02 03:10:25;;;;;;;31.83;21.37;;;12.40;99.90;;;;;;5081720;28;21083;-77
2023/05/02 03:12:54;;;;;;;24.33;18.00;;;12.40;99.90;;;;;;5089225;28;20434;-76
2023/05/02 03:15:50;;;;;;;26.50;17.80;;;12.40;99.90;;;;;;5089392;28;20407;-77
2023/05/02 03:18:16;;;;;;;21.63;15.63;;;12.40;99.90;;;;;;5088980;28;20529;-77
2023/05/02 03:20:42;;;;;;;24.37;16.37;;;12.40;99.90;;;;;;5071065;28;21023;-77
2023/05/02 03:23:07;;;;;;;25.00;15.03;;;12.40;99.90;;;;;;5088857;28;20437;-77
2023/05/02 03:25:33;;;;;;;22.70;16.30;;;12.40;99.90;;;;;;5089188;28;20176;-77
2023/05/02 03:27:59;;;;;;;23.47;15.60;;;12.40;99.90;;;;;;5088827;28;20661;-76
2023/05/02 03:30:25;;;;;;;24.17;16.80;;;12.40;99.90;;;;;;5086065;28;20419;-77
2023/05/02 03:32:51;;;;;;;21.40;15.53;;;12.40;99.90;;;;;;5068868;28;20698;-76
2023/05/02 03:35:17;;;;;;;17.53;13.83;;;12.40;99.90;;;;;;5050994;28;20181;-76
2023/05/02 03:37:46;;;;;;;19.17;13.77;;;12.30;99.90;;;;;;5068223;28;20407;-76
2023/05/02 03:40:11;;;;;;;17.17;13.50;;;12.30;99.90;;;;;;5050262;28;20766;-74
2023/05/02 03:42:40;;;;;;;19.27;14.10;;;12.30;99.90;;;;;;5068642;28;20433;-77
2023/05/02 03:45:06;;;;;;;16.33;12.00;;;12.30;99.90;;;;;;5050705;28;20576;-77
2023/05/02 03:47:32;;;;;;;17.50;13.07;;;12.30;99.90;;;;;;5068482;28;20792;-77
2023/05/02 03:49:58;;;;;;;21.60;13.10;;;12.30;99.90;;;;;;5068637;28;20459;-77
2023/05/02 03:52:24;;;;;;;16.50;12.33;;;12.30;99.90;;;;;;5068804;28;20459;-77
2023/05/02 03:54:50;;;;;;;15.17;11.53;;;12.20;99.90;;;;;;5050531;28;20185;-76
2023/05/02 03:57:16;;;;;;;17.63;12.40;;;12.20;99.90;;;;;;5068498;28;20415;-77
2023/05/02 03:59:44;;;;;;;18.30;13.27;;;12.20;99.90;;;;;;5068559;28;20434;-77
2023/05/02 04:02:10;;;;;;;18.77;13.87;;;12.20;99.90;;;;;;5069210;28;20439;-76
2023/05/02 04:04:37;;;;;;;17.80;12.80;;;12.20;99.90;;;;;;5068192;28;20940;-76
2023/05/02 04:07:03;;;;;;;19.30;12.97;;;12.20;99.90;;;;;;5068208;28;20457;-76
2023/05/02 04:09:29;;;;;;;18.57;12.60;;;12.30;99.90;;;;;;5074153;28;20487;-76
2023/05/02 04:11:55;;;;;;;19.07;12.53;;;12.20;99.90;;;;;;5088679;28;20434;-76
2023/05/02 04:14:20;;;;;;;17.83;13.13;;;12.20;99.90;;;;;;5088342;28;20184;-76
2023/05/02 04:16:50;;;;;;;16.67;12.73;;;12.30;99.90;;;;;;5088313;28;20176;-76
2023/05/02 04:19:17;;;;;;;18.60;13.70;;;12.30;99.90;;;;;;5088492;28;20187;-76
2023/05/02 04:21:44;;;;;;;17.10;12.30;;;12.30;99.90;;;;;;5088448;28;20438;-76
2023/05/02 04:24:10;;;;;;;19.20;13.20;;;12.30;99.90;;;;;;5070150;28;20489;-76
2023/05/02 04:26:36;;;;;;;17.20;12.43;;;12.30;99.90;;;;;;5088547;28;20510;-76
2023/05/02 04:29:03;;;;;;;17.20;12.40;;;12.30;99.90;;;;;;5088019;28;20530;-76
2023/05/02 04:31:30;;;;;;;17.90;11.60;;;12.30;99.90;;;;;;5076482;28;20493;-76
2023/05/02 04:33:55;;;;;;;17.07;12.63;;;12.20;99.90;;;;;;5068018;28;20499;-76
2023/05/02 04:36:23;;;;;;;17.40;11.33;;;12.20;99.90;;;;;;5068367;28;20494;-76
2023/05/02 04:38:48;;;;;;;15.97;12.20;;;12.20;99.90;;;;;;5067974;28;20668;-76
2023/05/02 04:41:14;;;;;;;15.63;11.60;;;12.30;99.90;;;;;;5067965;28;20435;-76
2023/05/02 04:43:40;;;;;;;14.90;10.90;;;12.30;99.90;;;;;;5066239;28;20186;-75
2023/05/02 04:46:06;;;;;;;15.40;11.03;;;12.20;99.90;;;;;;5065600;28;20186;-75
2023/05/02 04:48:32;;;;;;;18.73;11.87;;;12.20;99.90;;;;;;5067471;28;20212;-75
2023/05/02 04:50:58;;;;;;;16.17;12.00;;;12.20;99.90;;;;;;5070527;28;20181;-76
2023/05/02 04:53:24;;;;;;;20.37;13.03;;;12.20;99.90;;;;;;5071487;28;20419;-76
2023/05/02 04:55:49;;;;;;;15.03;10.40;;;12.20;99.90;;;;;;5071714;28;20411;-75
2023/05/02 04:58:15;;;;;;;15.30;12.00;;;12.20;99.90;;;;;;5071225;28;20305;-75
2023/05/02 05:00:41;;;;;;;19.37;11.67;;;12.20;99.90;;;;;;5071298;28;20184;-75
2023/05/02 05:03:07;;;;;;;17.37;12.17;;;12.20;99.90;;;;;;5071307;28;20553;-75
2023/05/02 05:05:32;;;;;;;17.60;12.73;;;12.20;99.90;;;;;;5071655;28;20233;-75
2023/05/02 05:07:58;;;;;;;17.67;11.80;;;12.20;99.90;;;;;;5071094;28;20689;-76
2023/05/02 05:10:24;;;;;;;16.67;12.93;;;12.10;99.90;;;;;;5084809;28;20410;-76
2023/05/02 05:12:49;;;;;;;20.10;12.40;;;12.20;99.90;;;;;;5091563;28;20220;-76
2023/05/02 05:15:16;;;;;;;18.43;11.90;;;12.20;99.90;;;;;;5091258;28;20681;-76
2023/05/02 05:17:41;;;;;;;18.80;13.53;;;12.20;99.90;;;;;;5091212;28;20172;-76
2023/05/02 05:20:10;;;;;;;18.80;13.17;;;12.20;99.90;;;;;;5091123;28;20944;-76
2023/05/02 05:22:40;;;;;;;18.20;12.50;;;12.10;99.90;;;;;;5091453;28;20201;-76
2023/05/02 05:25:09;;;;;;;16.83;12.63;;;12.20;99.90;;;;;;5091058;28;20409;-76
2023/05/02 05:27:36;;;;;;;17.73;13.40;;;12.20;99.90;;;;;;5091204;28;21132;-76
2023/05/02 05:30:03;;;;;;;18.33;13.50;;;12.10;99.90;;;;;;5087584;28;20459;-76
2023/05/02 05:32:29;;;;;;;16.87;13.20;;;12.10;99.90;;;;;;5071106;28;20452;-77
2023/05/02 05:34:55;;;;;;;19.13;14.57;;;12.10;99.90;;;;;;5070815;28;20538;-77
2023/05/02 05:37:21;;;;;;;14.37;11.03;;;12.10;99.90;;;;;;5070655;28;20487;-77
2023/05/02 05:39:47;;;;;;;12.03;9.23;;;12.20;99.90;;;;;;5070633;28;20415;-77
2023/05/02 05:42:13;;;;;;;10.53;8.40;;;12.10;99.90;;;;;;5052497;28;20432;-77
2023/05/02 05:44:38;;;;;;;9.83;7.47;;;12.00;99.90;;;;;;5070606;28;20465;-77
2023/05/02 05:47:04;;;;;;;6.83;5.80;;;12.00;99.90;;;;;;5070279;28;20181;-76
2023/05/02 05:49:30;;;;;;;6.23;5.57;;;11.90;99.90;;;;;;5070319;28;20212;-76
2023/05/02 05:51:56;;;;;;;6.10;5.30;;;11.80;99.90;;;;;;5064204;28;20850;-76
2023/05/02 05:54:22;;;;;;;5.87;4.90;;;11.80;99.90;;;;;;5070017;28;20897;-76
2023/05/02 05:56:48;;;;;;;6.80;4.97;;;11.90;99.90;;;;;;5069991;28;20177;-76
2023/05/02 05:59:14;;;;;;;8.43;4.93;;;11.80;99.90;;;;;;5070604;28;20561;-77
2023/05/02 06:01:40;;;;;;;4.67;4.17;;;11.80;99.90;;;;;;5066449;28;20280;-76
2023/05/02 06:04:06;;;;;;;7.63;5.40;;;11.80;99.90;;;;;;5068363;28;20445;-76
2023/05/02 06:06:32;;;;;;;7.10;5.43;;;11.80;99.90;;;;;;5068489;28;21376;-77
2023/05/02 06:08:58;;;;;;;6.23;5.63;;;11.80;99.90;;;;;;5067395;28;20467;-76
2023/05/02 06:11:23;;;;;;;7.40;5.60;;;11.80;99.90;;;;;;5054995;28;20269;-76
2023/05/02 06:13:51;;;;;;;7.87;5.70;;;11.80;99.90;;;;;;5068318;28;20173;-77
2023/05/02 06:16:17;;;;;;;11.27;5.40;;;11.80;99.90;;;;;;5068816;28;20188;-76
2023/05/02 06:18:43;;;;;;;10.47;6.70;;;11.80;99.90;;;;;;5069084;28;20940;-76
2023/05/02 06:21:09;;;;;;;8.63;5.80;;;11.80;99.90;;;;;;5068747;28;20459;-76
2023/05/02 06:23:35;;;;;;;11.67;7.03;;;11.80;99.90;;;;;;5068787;28;20871;-76
2023/05/02 06:26:02;;;;;;;6.70;4.97;;;11.80;99.90;;;;;;5069056;28;20598;-77
2023/05/02 06:28:28;;;;;;;10.57;5.90;;;11.90;99.90;;;;;;5068065;28;21222;-76
2023/05/02 06:31:02;;;;;;;8.57;5.73;;;11.90;99.90;;;;;;5069320;28;20502;-76
2023/05/02 06:33:29;;;;;;;7.23;5.77;;;11.90;99.90;;;;;;5052529;28;20912;-76
2023/05/02 06:35:55;;;;;;;7.40;5.83;;;11.90;99.90;;;;;;5069873;28;20407;-77
2023/05/02 06:38:21;;;;;;;10.10;5.37;;;11.90;99.90;;;;;;5069420;28;20415;-76
2023/05/02 06:40:47;;;;;;;5.80;5.03;;;12.00;99.90;;;;;;5069453;28;20188;-77
2023/05/02 06:43:13;;;;;;;7.90;5.77;;;12.00;99.90;;;;;;5069430;28;20176;-76
2023/05/02 06:45:39;;;;;;;5.57;4.57;;;12.00;99.90;;;;;;5069712;28;20419;-76
2023/05/02 06:48:06;;;;;;;7.27;4.97;;;12.00;99.90;;;;;;5069223;28;20415;-77
2023/05/02 06:50:32;;;;;;;6.53;4.70;;;12.00;99.90;;;;;;5069305;28;20419;-76
2023/05/02 06:52:57;;;;;;;6.00;4.80;;;12.00;99.90;;;;;;5069164;28;20544;-76
2023/05/02 06:55:23;;;;;;;5.57;4.97;;;12.00;99.90;;;;;;5068672;28;20404;-76
2023/05/02 06:57:49;;;;;;;4.97;4.40;;;12.10;99.90;;;;;;5068516;28;20192;-76
2023/05/02 07:00:16;;;;;;;6.03;4.70;;;12.10;99.90;;;;;;5068858;28;20184;-76
2023/05/02 07:02:43;;;;;;;8.53;5.57;;;12.20;99.90;;;;;;5065970;28;20427;-76
2023/05/02 07:05:08;;;;;;;9.23;5.60;;;12.20;99.90;;;;;;5068333;28;20424;-76
2023/05/02 07:07:34;;;;;;;7.40;5.80;;;12.20;99.90;;;;;;5068352;28;20412;-76
2023/05/02 07:10:00;;;;;;;4.80;4.30;;;12.20;99.90;;;;;;5070134;28;20478;-76
2023/05/02 07:12:26;;;;;;;5.00;4.50;;;12.20;99.90;;;;;;5058962;28;20220;-76
2023/05/02 07:14:51;;;;;;;6.07;4.70;;;12.20;99.90;;;;;;5067201;28;20263;-76
2023/05/02 07:17:17;;;;;;;8.10;5.50;;;12.20;99.90;;;;;;5067660;28;20180;-76
2023/05/02 07:19:43;;;;;;;11.30;5.83;;;12.20;99.90;;;;;;5049933;28;20185;-76
2023/05/02 07:22:09;;;;;;;5.80;4.80;;;12.20;99.90;;;;;;5068010;28;20435;-76
2023/05/02 07:24:34;;;;;;;5.40;4.90;;;12.20;99.90;;;;;;5068061;28;20181;-76
2023/05/02 07:27:00;;;;;;;9.27;5.40;;;12.20;99.90;;;;;;5068332;28;20184;-76
2023/05/02 07:29:26;;;;;;;7.03;4.63;;;12.20;99.90;;;;;;5067841;28;20197;-76
2023/05/02 07:31:51;;;;;;;4.97;4.10;;;12.20;99.90;;;;;;5050040;28;20254;-76
2023/05/02 07:34:17;;;;;;;5.00;4.07;;;12.20;99.90;;;;;;5049559;28;20218;-76
2023/05/02 07:36:43;;;;;;;7.73;4.63;;;12.10;99.90;;;;;;5067617;28;20958;-76
2023/05/02 07:39:08;;;;;;;8.00;4.43;;;12.10;99.90;;;;;;5067415;28;20528;-76
2023/05/02 07:41:34;;;;;;;6.23;4.00;;;12.00;99.90;;;;;;5067181;28;20201;-76
2023/05/02 07:44:00;;;;;;;4.97;4.07;;;12.00;99.90;;;;;;5049653;28;20756;-76
2023/05/02 07:46:25;;;;;;;6.20;3.47;;;12.00;99.90;;;;;;5068630;28;20185;-76
2023/05/02 07:48:52;;;;;;;4.60;4.20;;;12.00;99.90;;;;;;5068422;28;20294;-76
2023/05/02 07:51:20;;;;;;;4.37;3.97;;;12.00;99.90;;;;;;5068220;28;20185;-77
2023/05/02 07:53:49;;;;;;;8.53;4.07;;;11.90;99.90;;;;;;5068563;28;20408;-77
2023/05/02 07:56:14;;;;;;;4.07;3.60;;;11.90;99.90;;;;;;5050761;28;20490;-76
2023/05/02 07:58:40;;;;;;;4.50;3.27;;;11.90;99.90;;;;;;5068381;28;20542;-77
2023/05/02 08:01:07;;;;;;;3.80;3.30;;;11.80;99.90;;;;;;5068170;28;20590;-76
2023/05/02 08:03:32;;;;;;;4.23;2.80;;;11.80;99.90;;;;;;5068121;28;20557;-76
2023/05/02 08:05:58;;;;;;;3.03;2.73;;;11.80;99.90;;;;;;5050471;28;20427;-76
2023/05/02 08:08:24;;;;;;;3.03;2.57;;;11.70;99.90;;;;;;5067869;28;20236;-76
2023/05/02 08:10:50;;;;;;;2.87;2.43;;;11.70;99.90;;;;;;5085309;28;20210;-76
2023/05/02 08:13:16;;;;;;;3.83;2.50;;;11.80;99.90;;;;;;5070383;28;20169;-76
2023/05/02 08:15:42;;;;;;;2.00;1.90;;;11.70;99.90;;;;;;5088652;28;20406;-76
2023/05/02 08:18:07;;;;;;;2.43;2.10;;;11.60;99.90;;;;;;5088481;28;20912;-76
2023/05/02 08:20:33;;;;;;;5.30;2.50;;;11.60;99.90;;;;;;5070413;28;20754;-76
2023/05/02 08:22:59;;;;;;;2.43;2.00;;;11.50;99.90;;;;;;5053338;28;20203;-76
2023/05/02 08:25:24;;;;;;;2.97;1.97;;;11.40;99.90;;;;;;5070841;28;20168;-76
2023/05/02 08:27:50;;;;;;;2.13;1.87;;;11.30;99.90;;;;;;5074573;28;20177;-76
2023/05/02 08:30:16;;;;;;;3.43;2.40;;;11.10;99.90;;;;;;5091092;28;20172;-76
2023/05/02 08:32:42;;;;;;;6.03;2.57;;;10.90;99.90;;;;;;5072302;28;20899;-76
2023/05/02 08:35:08;;;;;;;3.00;2.70;;;10.80;99.90;;;;;;5072464;28;20184;-77
2023/05/02 08:37:33;;;;;;;4.27;2.80;;;10.90;99.90;;;;;;5053559;28;20185;-77
2023/05/02 08:39:59;;;;;;;3.90;2.50;;;10.80;99.90;;;;;;5069049;28;20423;-77
2023/05/02 08:42:26;;;;;;;5.70;3.10;;;10.90;99.90;;;;;;5071340;28;20562;-75
2023/05/02 08:44:52;;;;;;;4.90;2.67;;;10.90;99.90;;;;;;5071268;28;20427;-77
2023/05/02 08:47:18;;;;;;;3.73;2.77;;;10.90;99.90;;;;;;5071147;28;20423;-75
2023/05/02 08:49:45;;;;;;;4.40;3.03;;;10.90;99.90;;;;;;5072673;28;20436;-77
2023/05/02 08:52:13;;;;;;;5.30;3.07;;;10.90;99.90;;;;;;5072012;28;20717;-77
2023/05/02 08:54:39;;;;;;;4.37;2.97;;;10.80;99.90;;;;;;5071840;28;20418;-77
2023/05/02 08:57:06;;;;;;;7.57;3.37;;;10.90;99.90;;;;;;5072131;28;20412;-77
2023/05/02 08:59:31;;;;;;;7.30;3.40;;;10.90;99.90;;;;;;5071832;28;20415;-77
2023/05/02 09:02:28;;;;;;;6.63;3.27;;;11.00;99.90;;;;;;5054070;28;20993;-77
2023/05/02 09:04:57;;;;;;;8.37;3.43;;;10.90;99.90;;;;;;5053833;28;20227;-77
2023/05/02 09:07:23;;;;;;;5.13;3.70;;;10.90;99.90;;;;;;5054049;28;20407;-77
2023/05/02 09:09:49;;;;;;;6.43;3.57;;;11.00;99.90;;;;;;5080465;28;20852;-76
2023/05/02 09:12:15;;;;;;;7.43;4.33;;;11.00;99.90;;;;;;5092173;28;20189;-77
2023/05/02 09:14:43;;;;;;;5.80;3.87;;;11.00;99.90;;;;;;5091818;28;20460;-76
2023/05/02 09:17:09;;;;;;;5.77;4.20;;;11.10;99.90;;;;;;5091637;28;20217;-77
2023/05/02 09:19:35;;;;;;;5.13;4.20;;;11.10;99.90;;;;;;5091781;28;20414;-77
2023/05/02 09:22:01;;;;;;;5.17;4.40;;;11.10;99.90;;;;;;5091881;28;20200;-77
2023/05/02 09:24:27;;;;;;;8.97;6.33;;;11.10;99.90;;;;;;5091487;28;20180;-77
2023/05/02 09:27:01;;;;;;;6.63;4.67;;;11.10;99.90;;;;;;5089640;28;20457;-77
2023/05/02 09:29:29;;;;;;;5.73;4.53;;;11.10;99.90;;;;;;5091252;28;20507;-77
2023/05/02 09:31:55;;;;;;;9.53;5.90;;;11.10;99.90;;;;;;5075816;28;20526;-77
2023/05/02 09:34:21;;;;;;;9.33;4.50;;;11.10;99.90;;;;;;5070932;28;20928;-77
2023/05/02 09:36:52;;;;;;;3.80;3.50;;;11.10;99.90;;;;;;5070913;28;20399;-77
2023/05/02 09:39:22;;;;;;;5.87;3.60;;;11.10;99.90;;;;;;5071065;28;20619;-77
2023/05/02 09:41:48;;;;;;;5.77;2.87;;;11.10;99.90;;;;;;5070714;28;21081;-77
2023/05/02 09:44:19;;;;;;;4.90;2.70;;;11.00;99.90;;;;;;5070359;28;20419;-77
2023/05/02 09:46:54;;;;;;;3.03;2.70;;;10.90;99.90;;;;;;5050884;28;20408;-77
2023/05/02 09:49:40;;;;;;;4.60;2.90;;;10.90;99.90;;;;;;5061710;28;20462;-77
2023/05/02 09:52:14;;;;;;;4.20;3.07;;;10.80;99.90;;;;;;5069367;28;20427;-77
2023/05/02 09:54:39;;;;;;;3.23;2.93;;;10.80;99.90;;;;;;5070572;28;20411;-77
2023/05/02 09:57:06;;;;;;;4.50;3.20;;;10.80;99.90;;;;;;5070396;28;20415;-77
2023/05/02 09:59:31;;;;;;;5.87;3.50;;;10.90;99.90;;;;;;5070741;28;20268;-77
2023/05/02 10:01:59;;;;;;;5.33;3.43;;;11.00;99.90;;;;;;5053040;28;20573;-76
2023/05/02 10:04:25;;;;;;;6.10;3.23;;;10.90;99.90;;;;;;5053398;28;20354;-76
2023/05/02 10:06:52;;;;;;;5.67;3.73;;;11.00;99.90;;;;;;5071018;28;20408;-77
2023/05/02 10:09:21;;;;;;;7.77;3.93;;;11.10;99.90;;;;;;5041246;28;20450;-76
2023/05/02 10:11:52;;;;;;;5.57;3.20;;;11.20;99.90;;;;;;5056488;28;20950;-77
2023/05/02 10:14:20;;;;;;;7.53;4.30;;;11.20;99.90;;;;;;5056364;28;20505;-76
2023/05/02 10:17:08;;;;;;;4.80;3.70;;;11.30;99.90;;;;;;5072416;28;20414;-76
2023/05/02 10:19:58;;;;;;;6.90;3.63;;;11.40;99.90;;;;;;5072907;28;20493;-76
2023/05/02 10:22:24;;;;;;;7.47;3.70;;;11.40;99.90;;;;;;5054840;28;20453;-77
2023/05/02 10:24:52;;;;;;;5.80;3.73;;;11.50;99.90;;;;;;5056090;28;20489;-76
2023/05/02 10:27:18;;;;;;;5.20;4.10;;;11.60;99.90;;;;;;5072884;28;20471;-76
2023/05/02 10:29:45;;;;;;;9.27;4.40;;;11.60;99.90;;;;;;5072882;28;20454;-76
2023/05/02 10:32:13;;;;;;;8.43;5.37;;;11.70;99.90;;;;;;5039055;28;20427;-77
2023/05/02 10:34:40;;;;;;;6.70;4.17;;;11.80;99.90;;;;;;5036809;28;20403;-77
2023/05/02 10:37:06;;;;;;;11.57;5.13;;;11.80;99.90;;;;;;5052865;28;20412;-76
2023/05/02 10:39:32;;;;;;;5.57;5.07;;;11.90;99.90;;;;;;5052642;28;20419;-76
2023/05/02 10:42:01;;;;;;;8.50;5.53;;;12.00;99.90;;;;;;5052284;28;20784;-76
2023/05/02 10:44:33;;;;;;;7.13;5.30;;;12.10;99.90;;;;;;5035902;28;20551;-76
2023/05/02 10:46:59;;;;;;;7.27;4.73;;;12.10;99.90;;;;;;5069560;28;20448;-76
2023/05/02 10:49:26;;;;;;;9.00;5.63;;;12.20;99.90;;;;;;5069659;28;20463;-76
2023/05/02 10:51:52;;;;;;;8.40;5.30;;;12.20;99.90;;;;;;5070159;28;20424;-76
2023/05/02 10:54:18;;;;;;;7.03;5.20;;;12.20;99.90;;;;;;5069570;28;20897;-77
2023/05/02 10:57:04;;;;;;;9.40;6.97;;;12.30;99.90;;;;;;5069781;28;20422;-75
2023/05/02 10:59:34;;;;;;;15.87;6.93;;;12.40;99.90;;;;;;5069707;28;20426;-76
2023/05/02 11:02:00;;;;;;;11.77;6.67;;;12.40;99.90;;;;;;5052322;28;20430;-76
2023/05/02 11:05:02;;;;;;;7.87;6.20;;;12.40;99.90;;;;;;5051999;28;20431;-77
2023/05/02 11:07:33;;;;;;;7.90;6.30;;;12.50;99.90;;;;;;5070195;28;20931;-76
2023/05/02 11:10:17;;;;;;;9.60;6.63;;;12.60;99.90;;;;;;5045470;28;20540;-76
2023/05/02 11:12:47;;;;;;;7.17;6.20;;;12.60;99.90;;;;;;5089986;28;20431;-77
2023/05/02 11:15:33;;;;;;;10.77;6.03;;;12.60;99.90;;;;;;5072117;28;21021;-77
2023/05/02 11:18:05;;;;;;;7.90;5.43;;;12.70;99.90;;;;;;5079001;28;20425;-76
2023/05/02 11:20:31;;;;;;;7.33;5.80;;;12.70;99.90;;;;;;5088873;28;20411;-77
2023/05/02 11:23:20;;;;;;;7.47;5.57;;;12.70;99.90;;;;;;5071698;28;20438;-76
2023/05/02 11:25:46;;;;;;;7.60;6.47;;;12.70;99.90;;;;;;5055597;28;20484;-76
2023/05/02 11:28:49;;;;;;;6.73;5.60;;;12.70;99.90;;;;;;5054711;28;20925;-76
2023/05/02 11:31:26;;;;;;;6.53;4.83;;;12.70;99.90;;;;;;5089650;28;20202;-76
2023/05/02 11:33:59;;;;;;;10.13;5.00;;;12.70;99.90;;;;;;5089233;28;20409;-76
2023/05/02 11:36:33;;;;;;;11.43;6.07;;;12.80;99.90;;;;;;5089645;28;20413;-77
2023/05/02 11:39:04;;;;;;;8.10;4.67;;;12.70;99.90;;;;;;5089238;28;20888;-77
2023/05/02 11:41:40;;;;;;;9.50;4.33;;;12.70;99.90;;;;;;5071499;28;20434;-77
2023/05/02 11:44:06;;;;;;;5.67;4.70;;;12.70;99.90;;;;;;5089344;28;20406;-77
2023/05/02 11:46:33;;;;;;;7.10;4.80;;;12.70;99.90;;;;;;5089430;28;20409;-77
2023/05/02 11:49:00;;;;;;;7.30;5.00;;;12.60;99.90;;;;;;5089447;28;20461;-78
2023/05/02 11:51:25;;;;;;;7.80;5.20;;;12.70;99.90;;;;;;5089609;28;20464;-77
2023/05/02 11:53:51;;;;;;;6.67;5.20;;;12.70;99.90;;;;;;5089961;28;20418;-76
2023/05/02 11:56:23;;;;;;;6.10;4.27;;;12.70;99.90;;;;;;5089760;28;20172;-77
2023/05/02 11:58:58;;;;;;;6.80;4.60;;;12.70;99.90;;;;;;5089107;28;20653;-77
2023/05/02 12:01:24;;;;;;;7.63;4.43;;;12.70;99.90;;;;;;5093136;28;20509;-77
2023/05/02 12:04:05;;;;;;;9.10;5.10;;;12.70;99.90;;;;;;5075529;28;20856;-77
2023/05/02 12:06:32;;;;;;;5.90;4.30;;;12.70;99.90;;;;;;5093620;28;20203;-76
2023/05/02 12:09:15;;;;;;;8.80;4.47;;;12.70;99.90;;;;;;5091117;28;20449;-77
2023/05/02 12:11:42;;;;;;;6.87;4.30;;;12.70;99.90;;;;;;5072537;28;20470;-77
2023/05/02 12:14:08;;;;;;;4.93;3.73;;;12.80;99.90;;;;;;5072850;28;20415;-77
2023/05/02 12:16:34;;;;;;;7.87;4.67;;;12.80;99.90;;;;;;5072795;28;20462;-76
2023/05/02 12:19:00;;;;;;;6.70;3.77;;;12.80;99.90;;;;;;5038217;28;20407;-76
2023/05/02 12:21:28;;;;;;;6.20;4.03;;;12.80;99.90;;;;;;5071389;28;21188;-76
2023/05/02 12:23:55;;;;;;;6.63;4.27;;;12.90;99.90;;;;;;5073591;28;20415;-75
2023/05/02 12:26:28;;;;;;;6.03;4.00;;;12.90;99.90;;;;;;5076722;28;20884;-76
2023/05/02 12:28:55;;;;;;;6.53;4.47;;;12.90;99.90;;;;;;5073865;28;20443;-77
2023/05/02 12:31:21;;;;;;;7.33;4.87;;;13.00;99.90;;;;;;5074541;28;20518;-77
2023/05/02 12:33:49;;;;;;;5.80;5.20;;;13.00;99.90;;;;;;5073237;28;20395;-77
2023/05/02 12:36:15;;;;;;;5.90;5.40;;;13.00;99.90;;;;;;5073250;28;20498;-77
2023/05/02 12:38:49;;;;;;;9.00;5.20;;;13.00;99.90;;;;;;5072602;28;20411;-77
2023/05/02 12:41:15;;;;;;;7.30;5.47;;;13.00;99.90;;;;;;5071395;28;20810;-76
2023/05/02 12:43:48;;;;;;;5.43;5.00;;;13.00;99.90;;;;;;5072657;28;20415;-76
2023/05/02 12:46:15;;;;;;;6.93;4.93;;;13.00;99.90;;;;;;5072393;28;20169;-77